sensor_id;sensor_type;location;lat;lon;timestamp;P1;durP1;ratioP1;P2;durP2;ratioP2
53843;SDS011;39744;53.314;5.710;2023-03-19T00:01:55;11.38;;;6.72;;
53843;SDS011;39744;53.314;5.710;2023-03-19T00:04:22;10.18;;;6.22;;
53843;SDS011;39744;53.314;5.710;2023-03-19T00:06:48;11.48;;;6.00;;
53843;SDS011;39744;53.314;5.710;2023-03-19T00:09:15;9.13;;;5.75;;
53843;SDS011;39744;53.314;5.710;2023-03-19T00:11:41;10.60;;;5.93;;
53843;SDS011;39744;53.314;5.710;2023-03-19T00:14:07;8.60;;;5.53;;
53843;SDS011;39744;53.314;5.710;2023-03-19T00:16:33;9.43;;;5.68;;
53843;SDS011;39744;53.314;5.710;2023-03-19T00:18:59;9.18;;;5.63;;
53843;SDS011;39744;53.314;5.710;2023-03-19T00:21:25;9.95;;;5.43;;
53843;SDS011;39744;53.314;5.710;2023-03-19T00:23:51;8.57;;;5.40;;
53843;SDS011;39744;53.314;5.710;2023-03-19T00:26:17;7.28;;;5.13;;
53843;SDS011;39744;53.314;5.710;2023-03-19T00:28:43;9.10;;;5.63;;
53843;SDS011;39744;53.314;5.710;2023-03-19T00:31:12;7.55;;;4.63;;
53843;SDS011;39744;53.314;5.710;2023-03-19T00:33:39;9.25;;;4.95;;
53843;SDS011;39744;53.314;5.710;2023-03-19T00:36:07;9.15;;;4.68;;
53843;SDS011;39744;53.314;5.710;2023-03-19T00:38:33;8.18;;;4.65;;
53843;SDS011;39744;53.314;5.710;2023-03-19T00:41:00;9.07;;;4.95;;
53843;SDS011;39744;53.314;5.710;2023-03-19T00:43:26;8.65;;;5.10;;
53843;SDS011;39744;53.314;5.710;2023-03-19T00:45:52;11.50;;;6.05;;
53843;SDS011;39744;53.314;5.710;2023-03-19T00:48:18;8.88;;;5.47;;
53843;SDS011;39744;53.314;5.710;2023-03-19T00:50:45;12.07;;;5.82;;
53843;SDS011;39744;53.314;5.710;2023-03-19T00:53:11;10.48;;;6.10;;
53843;SDS011;39744;53.314;5.710;2023-03-19T00:55:37;9.88;;;6.07;;
53843;SDS011;39744;53.314;5.710;2023-03-19T00:58:03;8.15;;;5.07;;
53843;SDS011;39744;53.314;5.710;2023-03-19T01:00:30;10.13;;;6.03;;
53843;SDS011;39744;53.314;5.710;2023-03-19T01:02:57;10.25;;;5.75;;
53843;SDS011;39744;53.314;5.710;2023-03-19T01:05:23;11.00;;;5.70;;
53843;SDS011;39744;53.314;5.710;2023-03-19T01:07:49;11.65;;;5.82;;
53843;SDS011;39744;53.314;5.710;2023-03-19T01:10:17;11.27;;;6.10;;
53843;SDS011;39744;53.314;5.710;2023-03-19T01:12:43;9.32;;;6.53;;
53843;SDS011;39744;53.314;5.710;2023-03-19T01:15:09;10.93;;;6.18;;
53843;SDS011;39744;53.314;5.710;2023-03-19T01:17:35;10.63;;;6.45;;
53843;SDS011;39744;53.314;5.710;2023-03-19T01:20:02;11.25;;;6.93;;
53843;SDS011;39744;53.314;5.710;2023-03-19T01:22:29;12.35;;;6.82;;
53843;SDS011;39744;53.314;5.710;2023-03-19T01:24:54;14.18;;;7.20;;
53843;SDS011;39744;53.314;5.710;2023-03-19T01:27:20;14.40;;;7.22;;
53843;SDS011;39744;53.314;5.710;2023-03-19T01:29:46;15.27;;;7.53;;
53843;SDS011;39744;53.314;5.710;2023-03-19T01:32:11;16.70;;;6.72;;
53843;SDS011;39744;53.314;5.710;2023-03-19T01:34:37;11.98;;;6.57;;
53843;SDS011;39744;53.314;5.710;2023-03-19T01:37:03;12.20;;;6.47;;
53843;SDS011;39744;53.314;5.710;2023-03-19T01:39:28;13.70;;;6.93;;
53843;SDS011;39744;53.314;5.710;2023-03-19T01:41:54;12.07;;;6.75;;
53843;SDS011;39744;53.314;5.710;2023-03-19T01:44:30;12.63;;;6.80;;
53843;SDS011;39744;53.314;5.710;2023-03-19T01:46:58;15.45;;;7.38;;
53843;SDS011;39744;53.314;5.710;2023-03-19T01:49:27;13.20;;;7.25;;
53843;SDS011;39744;53.314;5.710;2023-03-19T01:51:54;13.10;;;7.40;;
53843;SDS011;39744;53.314;5.710;2023-03-19T01:54:23;14.48;;;7.95;;
53843;SDS011;39744;53.314;5.710;2023-03-19T01:56:51;12.90;;;7.60;;
53843;SDS011;39744;53.314;5.710;2023-03-19T02:01:48;14.30;;;8.30;;
53843;SDS011;39744;53.314;5.710;2023-03-19T02:04:20;11.77;;;7.68;;
53843;SDS011;39744;53.314;5.710;2023-03-19T02:06:49;17.50;;;7.95;;
53843;SDS011;39744;53.314;5.710;2023-03-19T02:09:15;15.23;;;8.38;;
53843;SDS011;39744;53.314;5.710;2023-03-19T02:11:42;13.32;;;8.10;;
53843;SDS011;39744;53.314;5.710;2023-03-19T02:14:09;13.43;;;8.10;;
53843;SDS011;39744;53.314;5.710;2023-03-19T02:16:36;17.35;;;8.63;;
53843;SDS011;39744;53.314;5.710;2023-03-19T02:19:01;14.63;;;8.73;;
53843;SDS011;39744;53.314;5.710;2023-03-19T02:21:28;14.85;;;8.65;;
53843;SDS011;39744;53.314;5.710;2023-03-19T02:23:56;11.13;;;7.30;;
53843;SDS011;39744;53.314;5.710;2023-03-19T02:26:37;14.15;;;7.97;;
53843;SDS011;39744;53.314;5.710;2023-03-19T02:29:03;14.75;;;8.50;;
53843;SDS011;39744;53.314;5.710;2023-03-19T02:31:30;14.85;;;8.07;;
53843;SDS011;39744;53.314;5.710;2023-03-19T02:34:02;14.40;;;8.27;;
53843;SDS011;39744;53.314;5.710;2023-03-19T02:36:56;15.63;;;8.38;;
53843;SDS011;39744;53.314;5.710;2023-03-19T02:39:31;15.73;;;8.38;;
53843;SDS011;39744;53.314;5.710;2023-03-19T02:42:01;13.88;;;7.68;;
53843;SDS011;39744;53.314;5.710;2023-03-19T02:44:28;14.95;;;8.30;;
53843;SDS011;39744;53.314;5.710;2023-03-19T02:46:53;15.07;;;8.77;;
53843;SDS011;39744;53.314;5.710;2023-03-19T02:49:19;14.48;;;8.32;;
53843;SDS011;39744;53.314;5.710;2023-03-19T02:51:45;15.73;;;9.23;;
53843;SDS011;39744;53.314;5.710;2023-03-19T02:54:10;14.32;;;8.73;;
53843;SDS011;39744;53.314;5.710;2023-03-19T02:56:36;16.15;;;8.65;;
53843;SDS011;39744;53.314;5.710;2023-03-19T02:59:02;14.32;;;8.77;;
53843;SDS011;39744;53.314;5.710;2023-03-19T03:01:28;14.10;;;8.38;;
53843;SDS011;39744;53.314;5.710;2023-03-19T03:03:54;15.65;;;9.32;;
53843;SDS011;39744;53.314;5.710;2023-03-19T03:06:19;15.02;;;8.68;;
53843;SDS011;39744;53.314;5.710;2023-03-19T03:08:45;13.48;;;8.52;;
53843;SDS011;39744;53.314;5.710;2023-03-19T03:11:11;17.23;;;9.82;;
53843;SDS011;39744;53.314;5.710;2023-03-19T03:13:37;15.93;;;9.70;;
53843;SDS011;39744;53.314;5.710;2023-03-19T03:16:02;16.65;;;9.50;;
53843;SDS011;39744;53.314;5.710;2023-03-19T03:18:28;17.15;;;9.90;;
53843;SDS011;39744;53.314;5.710;2023-03-19T03:20:54;17.45;;;10.60;;
53843;SDS011;39744;53.314;5.710;2023-03-19T03:23:19;16.52;;;10.50;;
53843;SDS011;39744;53.314;5.710;2023-03-19T03:25:49;21.23;;;11.52;;
53843;SDS011;39744;53.314;5.710;2023-03-19T03:28:16;15.95;;;10.80;;
53843;SDS011;39744;53.314;5.710;2023-03-19T03:30:43;19.83;;;11.32;;
53843;SDS011;39744;53.314;5.710;2023-03-19T03:33:09;21.40;;;12.18;;
53843;SDS011;39744;53.314;5.710;2023-03-19T03:35:34;27.13;;;13.77;;
53843;SDS011;39744;53.314;5.710;2023-03-19T03:38:00;22.52;;;13.25;;
53843;SDS011;39744;53.314;5.710;2023-03-19T03:40:27;21.73;;;12.52;;
53843;SDS011;39744;53.314;5.710;2023-03-19T03:42:53;24.90;;;12.95;;
53843;SDS011;39744;53.314;5.710;2023-03-19T03:45:20;23.30;;;13.85;;
53843;SDS011;39744;53.314;5.710;2023-03-19T03:47:45;27.80;;;15.73;;
53843;SDS011;39744;53.314;5.710;2023-03-19T03:50:11;26.33;;;15.73;;
53843;SDS011;39744;53.314;5.710;2023-03-19T03:52:38;27.27;;;14.35;;
53843;SDS011;39744;53.314;5.710;2023-03-19T03:55:05;28.65;;;16.73;;
53843;SDS011;39744;53.314;5.710;2023-03-19T03:57:32;28.38;;;15.57;;
53843;SDS011;39744;53.314;5.710;2023-03-19T03:59:57;31.27;;;16.05;;
53843;SDS011;39744;53.314;5.710;2023-03-19T04:02:23;33.97;;;16.83;;
53843;SDS011;39744;53.314;5.710;2023-03-19T04:04:49;29.77;;;16.55;;
53843;SDS011;39744;53.314;5.710;2023-03-19T04:07:15;41.35;;;18.08;;
53843;SDS011;39744;53.314;5.710;2023-03-19T04:09:41;25.80;;;15.13;;
53843;SDS011;39744;53.314;5.710;2023-03-19T04:12:07;37.95;;;17.70;;
53843;SDS011;39744;53.314;5.710;2023-03-19T04:14:32;27.70;;;15.40;;
53843;SDS011;39744;53.314;5.710;2023-03-19T04:16:58;25.63;;;15.07;;
53843;SDS011;39744;53.314;5.710;2023-03-19T04:19:23;51.55;;;18.40;;
53843;SDS011;39744;53.314;5.710;2023-03-19T04:21:49;23.25;;;15.00;;
53843;SDS011;39744;53.314;5.710;2023-03-19T04:24:15;26.90;;;15.23;;
53843;SDS011;39744;53.314;5.710;2023-03-19T04:26:40;36.70;;;16.95;;
53843;SDS011;39744;53.314;5.710;2023-03-19T04:29:06;31.55;;;16.05;;
53843;SDS011;39744;53.314;5.710;2023-03-19T04:31:34;26.58;;;15.05;;
53843;SDS011;39744;53.314;5.710;2023-03-19T04:34:00;33.35;;;16.30;;
53843;SDS011;39744;53.314;5.710;2023-03-19T04:36:25;32.13;;;16.50;;
53843;SDS011;39744;53.314;5.710;2023-03-19T04:38:51;43.58;;;18.23;;
53843;SDS011;39744;53.314;5.710;2023-03-19T04:41:17;32.92;;;16.85;;
53843;SDS011;39744;53.314;5.710;2023-03-19T04:43:43;32.78;;;17.23;;
53843;SDS011;39744;53.314;5.710;2023-03-19T04:46:08;38.65;;;19.55;;
53843;SDS011;39744;53.314;5.710;2023-03-19T04:48:34;30.63;;;18.48;;
53843;SDS011;39744;53.314;5.710;2023-03-19T04:51:01;31.15;;;16.83;;
53843;SDS011;39744;53.314;5.710;2023-03-19T04:53:28;41.75;;;19.75;;
53843;SDS011;39744;53.314;5.710;2023-03-19T04:55:54;38.38;;;19.17;;
53843;SDS011;39744;53.314;5.710;2023-03-19T04:58:19;38.20;;;18.65;;
53843;SDS011;39744;53.314;5.710;2023-03-19T05:00:45;33.38;;;18.73;;
53843;SDS011;39744;53.314;5.710;2023-03-19T05:03:12;34.55;;;18.83;;
53843;SDS011;39744;53.314;5.710;2023-03-19T05:05:38;48.92;;;20.20;;
53843;SDS011;39744;53.314;5.710;2023-03-19T05:08:04;39.72;;;21.00;;
53843;SDS011;39744;53.314;5.710;2023-03-19T05:10:30;45.13;;;19.98;;
53843;SDS011;39744;53.314;5.710;2023-03-19T05:12:56;55.53;;;22.25;;
53843;SDS011;39744;53.314;5.710;2023-03-19T05:15:22;286.67;;;40.78;;
53843;SDS011;39744;53.314;5.710;2023-03-19T05:17:48;146.40;;;26.63;;
53843;SDS011;39744;53.314;5.710;2023-03-19T05:20:14;145.80;;;23.80;;
53843;SDS011;39744;53.314;5.710;2023-03-19T05:22:39;214.20;;;27.75;;
53843;SDS011;39744;53.314;5.710;2023-03-19T05:25:05;198.30;;;25.33;;
53843;SDS011;39744;53.314;5.710;2023-03-19T05:27:31;199.43;;;25.77;;
53843;SDS011;39744;53.314;5.710;2023-03-19T05:29:57;119.22;;;20.70;;
53843;SDS011;39744;53.314;5.710;2023-03-19T05:32:22;139.30;;;20.98;;
53843;SDS011;39744;53.314;5.710;2023-03-19T05:34:49;113.30;;;20.63;;
53843;SDS011;39744;53.314;5.710;2023-03-19T05:37:14;167.40;;;23.98;;
53843;SDS011;39744;53.314;5.710;2023-03-19T05:39:41;180.07;;;20.45;;
53843;SDS011;39744;53.314;5.710;2023-03-19T05:42:07;164.52;;;20.85;;
53843;SDS011;39744;53.314;5.710;2023-03-19T05:44:32;88.38;;;19.30;;
53843;SDS011;39744;53.314;5.710;2023-03-19T05:46:58;72.80;;;21.63;;
53843;SDS011;39744;53.314;5.710;2023-03-19T05:49:23;85.25;;;19.35;;
53843;SDS011;39744;53.314;5.710;2023-03-19T05:51:49;31.35;;;16.15;;
53843;SDS011;39744;53.314;5.710;2023-03-19T05:54:15;27.80;;;16.25;;
53843;SDS011;39744;53.314;5.710;2023-03-19T05:56:41;33.55;;;15.85;;
53843;SDS011;39744;53.314;5.710;2023-03-19T05:59:07;35.25;;;17.17;;
53843;SDS011;39744;53.314;5.710;2023-03-19T06:01:32;30.27;;;16.88;;
53843;SDS011;39744;53.314;5.710;2023-03-19T06:03:58;32.55;;;16.95;;
53843;SDS011;39744;53.314;5.710;2023-03-19T06:06:24;31.55;;;16.75;;
53843;SDS011;39744;53.314;5.710;2023-03-19T06:08:51;39.55;;;17.60;;
53843;SDS011;39744;53.314;5.710;2023-03-19T06:11:17;39.03;;;17.70;;
53843;SDS011;39744;53.314;5.710;2023-03-19T06:13:43;33.33;;;17.88;;
53843;SDS011;39744;53.314;5.710;2023-03-19T06:16:10;38.30;;;19.17;;
53843;SDS011;39744;53.314;5.710;2023-03-19T06:18:36;38.10;;;17.75;;
53843;SDS011;39744;53.314;5.710;2023-03-19T06:21:02;34.90;;;17.77;;
53843;SDS011;39744;53.314;5.710;2023-03-19T06:23:28;42.00;;;18.58;;
53843;SDS011;39744;53.314;5.710;2023-03-19T06:25:54;41.67;;;17.60;;
53843;SDS011;39744;53.314;5.710;2023-03-19T06:28:20;38.95;;;18.52;;
53843;SDS011;39744;53.314;5.710;2023-03-19T06:30:45;40.78;;;18.50;;
53843;SDS011;39744;53.314;5.710;2023-03-19T06:33:11;46.78;;;18.48;;
53843;SDS011;39744;53.314;5.710;2023-03-19T06:35:38;48.58;;;19.38;;
53843;SDS011;39744;53.314;5.710;2023-03-19T06:38:04;41.88;;;18.20;;
53843;SDS011;39744;53.314;5.710;2023-03-19T06:40:31;41.53;;;18.10;;
53843;SDS011;39744;53.314;5.710;2023-03-19T06:42:57;41.55;;;18.33;;
53843;SDS011;39744;53.314;5.710;2023-03-19T06:45:22;46.63;;;18.15;;
53843;SDS011;39744;53.314;5.710;2023-03-19T06:47:48;38.10;;;17.98;;
53843;SDS011;39744;53.314;5.710;2023-03-19T06:50:14;51.75;;;21.83;;
53843;SDS011;39744;53.314;5.710;2023-03-19T06:52:40;40.20;;;18.00;;
53843;SDS011;39744;53.314;5.710;2023-03-19T06:55:06;40.80;;;18.70;;
53843;SDS011;39744;53.314;5.710;2023-03-19T06:57:33;40.88;;;19.33;;
53843;SDS011;39744;53.314;5.710;2023-03-19T06:59:59;43.28;;;19.17;;
53843;SDS011;39744;53.314;5.710;2023-03-19T07:02:25;39.60;;;17.40;;
53843;SDS011;39744;53.314;5.710;2023-03-19T07:04:51;44.42;;;18.38;;
53843;SDS011;39744;53.314;5.710;2023-03-19T07:07:17;35.92;;;16.80;;
53843;SDS011;39744;53.314;5.710;2023-03-19T07:09:43;35.28;;;16.90;;
53843;SDS011;39744;53.314;5.710;2023-03-19T07:12:09;36.35;;;16.88;;
53843;SDS011;39744;53.314;5.710;2023-03-19T07:14:35;36.90;;;16.90;;
53843;SDS011;39744;53.314;5.710;2023-03-19T07:17:00;41.40;;;18.10;;
53843;SDS011;39744;53.314;5.710;2023-03-19T07:19:26;52.70;;;20.92;;
53843;SDS011;39744;53.314;5.710;2023-03-19T07:21:52;83.80;;;24.40;;
53843;SDS011;39744;53.314;5.710;2023-03-19T07:24:17;90.55;;;25.30;;
53843;SDS011;39744;53.314;5.710;2023-03-19T07:26:43;105.82;;;26.23;;
53843;SDS011;39744;53.314;5.710;2023-03-19T07:29:10;85.20;;;25.77;;
53843;SDS011;39744;53.314;5.710;2023-03-19T07:31:36;77.90;;;26.30;;
53843;SDS011;39744;53.314;5.710;2023-03-19T07:34:02;71.30;;;25.80;;
53843;SDS011;39744;53.314;5.710;2023-03-19T07:36:28;78.03;;;27.45;;
53843;SDS011;39744;53.314;5.710;2023-03-19T07:38:53;87.88;;;27.00;;
53843;SDS011;39744;53.314;5.710;2023-03-19T07:41:19;84.28;;;27.25;;
53843;SDS011;39744;53.314;5.710;2023-03-19T07:43:45;91.88;;;28.88;;
53843;SDS011;39744;53.314;5.710;2023-03-19T07:46:10;73.70;;;27.20;;
53843;SDS011;39744;53.314;5.710;2023-03-19T07:48:36;96.15;;;26.55;;
53843;SDS011;39744;53.314;5.710;2023-03-19T07:51:02;71.55;;;25.48;;
53843;SDS011;39744;53.314;5.710;2023-03-19T07:53:28;70.03;;;25.00;;
53843;SDS011;39744;53.314;5.710;2023-03-19T07:55:53;73.32;;;24.05;;
53843;SDS011;39744;53.314;5.710;2023-03-19T07:58:19;64.95;;;22.08;;
53843;SDS011;39744;53.314;5.710;2023-03-19T08:00:45;70.22;;;21.25;;
53843;SDS011;39744;53.314;5.710;2023-03-19T08:03:11;94.72;;;22.92;;
53843;SDS011;39744;53.314;5.710;2023-03-19T08:05:37;72.22;;;20.33;;
53843;SDS011;39744;53.314;5.710;2023-03-19T08:08:03;76.40;;;20.58;;
53843;SDS011;39744;53.314;5.710;2023-03-19T08:10:28;90.78;;;23.05;;
53843;SDS011;39744;53.314;5.710;2023-03-19T08:12:54;69.93;;;22.20;;
53843;SDS011;39744;53.314;5.710;2023-03-19T08:15:20;58.40;;;19.85;;
53843;SDS011;39744;53.314;5.710;2023-03-19T08:17:46;41.45;;;15.73;;
53843;SDS011;39744;53.314;5.710;2023-03-19T08:20:13;40.03;;;15.90;;
53843;SDS011;39744;53.314;5.710;2023-03-19T08:22:42;39.55;;;15.07;;
53843;SDS011;39744;53.314;5.710;2023-03-19T08:25:12;36.53;;;15.20;;
53843;SDS011;39744;53.314;5.710;2023-03-19T08:27:38;37.88;;;14.23;;
53843;SDS011;39744;53.314;5.710;2023-03-19T08:30:05;46.25;;;16.52;;
53843;SDS011;39744;53.314;5.710;2023-03-19T08:32:31;42.70;;;15.13;;
53843;SDS011;39744;53.314;5.710;2023-03-19T08:34:57;40.13;;;15.32;;
53843;SDS011;39744;53.314;5.710;2023-03-19T08:37:23;50.95;;;17.13;;
53843;SDS011;39744;53.314;5.710;2023-03-19T08:39:49;44.95;;;16.17;;
53843;SDS011;39744;53.314;5.710;2023-03-19T08:42:16;48.17;;;16.92;;
53843;SDS011;39744;53.314;5.710;2023-03-19T08:44:45;57.80;;;19.15;;
53843;SDS011;39744;53.314;5.710;2023-03-19T08:47:11;62.85;;;21.00;;
53843;SDS011;39744;53.314;5.710;2023-03-19T08:49:37;78.72;;;21.67;;
53843;SDS011;39744;53.314;5.710;2023-03-19T08:52:03;73.70;;;20.45;;
53843;SDS011;39744;53.314;5.710;2023-03-19T08:54:29;64.30;;;19.92;;
53843;SDS011;39744;53.314;5.710;2023-03-19T08:56:55;75.95;;;20.08;;
53843;SDS011;39744;53.314;5.710;2023-03-19T08:59:20;53.15;;;17.50;;
53843;SDS011;39744;53.314;5.710;2023-03-19T09:01:50;61.78;;;18.15;;
53843;SDS011;39744;53.314;5.710;2023-03-19T09:04:16;52.38;;;17.58;;
53843;SDS011;39744;53.314;5.710;2023-03-19T09:06:42;65.93;;;18.90;;
53843;SDS011;39744;53.314;5.710;2023-03-19T09:09:09;48.35;;;16.40;;
53843;SDS011;39744;53.314;5.710;2023-03-19T09:11:34;51.55;;;16.08;;
53843;SDS011;39744;53.314;5.710;2023-03-19T09:14:00;43.75;;;15.60;;
53843;SDS011;39744;53.314;5.710;2023-03-19T09:16:26;38.45;;;14.57;;
53843;SDS011;39744;53.314;5.710;2023-03-19T09:18:52;39.30;;;14.65;;
53843;SDS011;39744;53.314;5.710;2023-03-19T09:21:17;41.00;;;14.77;;
53843;SDS011;39744;53.314;5.710;2023-03-19T09:23:43;55.22;;;16.10;;
53843;SDS011;39744;53.314;5.710;2023-03-19T09:26:09;34.45;;;11.95;;
53843;SDS011;39744;53.314;5.710;2023-03-19T09:28:35;31.45;;;12.40;;
53843;SDS011;39744;53.314;5.710;2023-03-19T09:31:02;32.83;;;13.80;;
53843;SDS011;39744;53.314;5.710;2023-03-19T09:33:31;40.25;;;15.48;;
53843;SDS011;39744;53.314;5.710;2023-03-19T09:35:57;51.67;;;15.70;;
53843;SDS011;39744;53.314;5.710;2023-03-19T09:38:23;47.55;;;15.60;;
53843;SDS011;39744;53.314;5.710;2023-03-19T09:44:04;37.33;;;14.05;;
53843;SDS011;39744;53.314;5.710;2023-03-19T09:46:52;30.98;;;12.52;;
53843;SDS011;39744;53.314;5.710;2023-03-19T09:49:23;33.90;;;12.63;;
53843;SDS011;39744;53.314;5.710;2023-03-19T09:54:30;25.88;;;11.00;;
53843;SDS011;39744;53.314;5.710;2023-03-19T09:56:59;27.02;;;10.98;;
53843;SDS011;39744;53.314;5.710;2023-03-19T09:59:25;28.17;;;11.63;;
53843;SDS011;39744;53.314;5.710;2023-03-19T10:01:56;28.90;;;10.82;;
53843;SDS011;39744;53.314;5.710;2023-03-19T10:13:12;20.48;;;8.45;;
53843;SDS011;39744;53.314;5.710;2023-03-19T10:15:50;25.00;;;8.85;;
53843;SDS011;39744;53.314;5.710;2023-03-19T10:18:23;22.17;;;8.25;;
53843;SDS011;39744;53.314;5.710;2023-03-19T10:20:57;20.70;;;8.70;;
53843;SDS011;39744;53.314;5.710;2023-03-19T10:26:15;19.00;;;8.35;;
53843;SDS011;39744;53.314;5.710;2023-03-19T10:28:44;17.98;;;8.15;;
53843;SDS011;39744;53.314;5.710;2023-03-19T10:31:24;18.90;;;8.00;;
53843;SDS011;39744;53.314;5.710;2023-03-19T10:33:56;16.85;;;7.78;;
53843;SDS011;39744;53.314;5.710;2023-03-19T10:36:41;17.27;;;7.82;;
53843;SDS011;39744;53.314;5.710;2023-03-19T10:39:06;17.77;;;8.15;;
53843;SDS011;39744;53.314;5.710;2023-03-19T10:44:10;20.08;;;8.25;;
53843;SDS011;39744;53.314;5.710;2023-03-19T10:46:58;17.98;;;8.38;;
53843;SDS011;39744;53.314;5.710;2023-03-19T10:49:33;25.90;;;9.45;;
53843;SDS011;39744;53.314;5.710;2023-03-19T10:52:00;25.67;;;10.38;;
53843;SDS011;39744;53.314;5.710;2023-03-19T10:54:26;23.45;;;9.82;;
53843;SDS011;39744;53.314;5.710;2023-03-19T10:56:57;25.65;;;12.20;;
53843;SDS011;39744;53.314;5.710;2023-03-19T11:02:02;26.48;;;11.80;;
53843;SDS011;39744;53.314;5.710;2023-03-19T11:04:46;27.35;;;11.95;;
53843;SDS011;39744;53.314;5.710;2023-03-19T11:07:12;23.83;;;11.55;;
53843;SDS011;39744;53.314;5.710;2023-03-19T11:09:43;25.88;;;12.07;;
53843;SDS011;39744;53.314;5.710;2023-03-19T11:14:42;25.52;;;11.55;;
53843;SDS011;39744;53.314;5.710;2023-03-19T11:17:36;26.55;;;11.93;;
53843;SDS011;39744;53.314;5.710;2023-03-19T11:20:45;25.60;;;10.73;;
53843;SDS011;39744;53.314;5.710;2023-03-19T11:22:55;25.20;;;11.07;;
53843;SDS011;39744;53.314;5.710;2023-03-19T11:25:37;28.80;;;12.27;;
53843;SDS011;39744;53.314;5.710;2023-03-19T11:28:08;22.10;;;10.90;;
53843;SDS011;39744;53.314;5.710;2023-03-19T11:34:06;24.60;;;9.90;;
53843;SDS011;39744;53.314;5.710;2023-03-19T11:45:02;20.65;;;9.13;;
53843;SDS011;39744;53.314;5.710;2023-03-19T11:47:53;17.67;;;9.15;;
53843;SDS011;39744;53.314;5.710;2023-03-19T11:50:32;18.88;;;9.23;;
53843;SDS011;39744;53.314;5.710;2023-03-19T12:07:33;24.92;;;10.63;;
53843;SDS011;39744;53.314;5.710;2023-03-19T12:10:29;22.20;;;10.93;;
53843;SDS011;39744;53.314;5.710;2023-03-19T12:18:54;24.77;;;11.50;;
53843;SDS011;39744;53.314;5.710;2023-03-19T12:21:33;29.00;;;10.88;;
53843;SDS011;39744;53.314;5.710;2023-03-19T12:26:57;30.48;;;12.40;;
53843;SDS011;39744;53.314;5.710;2023-03-19T12:29:48;28.38;;;12.00;;
53843;SDS011;39744;53.314;5.710;2023-03-19T12:32:25;26.08;;;11.85;;
53843;SDS011;39744;53.314;5.710;2023-03-19T12:35:16;27.30;;;12.32;;
53843;SDS011;39744;53.314;5.710;2023-03-19T12:37:57;26.15;;;11.80;;
53843;SDS011;39744;53.314;5.710;2023-03-19T12:43:23;27.58;;;12.13;;
53843;SDS011;39744;53.314;5.710;2023-03-19T12:45:55;30.10;;;12.80;;
53843;SDS011;39744;53.314;5.710;2023-03-19T12:48:27;30.60;;;14.23;;
53843;SDS011;39744;53.314;5.710;2023-03-19T12:51:07;32.92;;;14.60;;
53843;SDS011;39744;53.314;5.710;2023-03-19T12:56:19;29.90;;;14.63;;
53843;SDS011;39744;53.314;5.710;2023-03-19T13:01:42;32.70;;;16.55;;
53843;SDS011;39744;53.314;5.710;2023-03-19T13:04:18;34.07;;;17.57;;
53843;SDS011;39744;53.314;5.710;2023-03-19T13:06:55;35.70;;;17.60;;
53843;SDS011;39744;53.314;5.710;2023-03-19T13:09:38;38.58;;;17.92;;
53843;SDS011;39744;53.314;5.710;2023-03-19T13:12:13;36.22;;;18.20;;
53843;SDS011;39744;53.314;5.710;2023-03-19T13:17:33;37.20;;;18.48;;
53843;SDS011;39744;53.314;5.710;2023-03-19T13:20:19;34.47;;;17.45;;
53843;SDS011;39744;53.314;5.710;2023-03-19T13:23:08;35.67;;;17.65;;
53843;SDS011;39744;53.314;5.710;2023-03-19T13:25:39;39.35;;;18.67;;
53843;SDS011;39744;53.314;5.710;2023-03-19T13:28:10;38.83;;;19.52;;
53843;SDS011;39744;53.314;5.710;2023-03-19T13:30:56;43.67;;;20.20;;
53843;SDS011;39744;53.314;5.710;2023-03-19T13:33:49;46.70;;;21.90;;
53843;SDS011;39744;53.314;5.710;2023-03-19T13:36:24;42.72;;;21.17;;
53843;SDS011;39744;53.314;5.710;2023-03-19T13:38:52;45.80;;;21.80;;
53843;SDS011;39744;53.314;5.710;2023-03-19T13:41:46;54.00;;;22.65;;
53843;SDS011;39744;53.314;5.710;2023-03-19T13:44:23;44.70;;;21.27;;
53843;SDS011;39744;53.314;5.710;2023-03-19T13:46:54;45.65;;;19.48;;
53843;SDS011;39744;53.314;5.710;2023-03-19T13:49:25;30.73;;;15.40;;
53843;SDS011;39744;53.314;5.710;2023-03-19T13:51:58;34.40;;;15.27;;
53843;SDS011;39744;53.314;5.710;2023-03-19T13:54:32;31.67;;;14.23;;
53843;SDS011;39744;53.314;5.710;2023-03-19T13:59:39;27.80;;;13.82;;
53843;SDS011;39744;53.314;5.710;2023-03-19T14:05:31;31.52;;;14.32;;
53843;SDS011;39744;53.314;5.710;2023-03-19T14:07:43;31.13;;;14.38;;
53843;SDS011;39744;53.314;5.710;2023-03-19T14:10:15;39.83;;;18.55;;
53843;SDS011;39744;53.314;5.710;2023-03-19T14:12:46;39.22;;;15.88;;
53843;SDS011;39744;53.314;5.710;2023-03-19T14:15:14;42.97;;;16.63;;
53843;SDS011;39744;53.314;5.710;2023-03-19T14:20:34;31.58;;;14.60;;
53843;SDS011;39744;53.314;5.710;2023-03-19T14:23:19;31.92;;;14.23;;
53843;SDS011;39744;53.314;5.710;2023-03-19T14:28:45;26.10;;;12.35;;
53843;SDS011;39744;53.314;5.710;2023-03-19T14:31:27;29.25;;;15.23;;
53843;SDS011;39744;53.314;5.710;2023-03-19T14:36:45;30.42;;;14.00;;
53843;SDS011;39744;53.314;5.710;2023-03-19T14:41:48;34.05;;;15.13;;
53843;SDS011;39744;53.314;5.710;2023-03-19T14:47:01;38.45;;;17.42;;
53843;SDS011;39744;53.314;5.710;2023-03-19T14:49:47;39.15;;;16.20;;
53843;SDS011;39744;53.314;5.710;2023-03-19T14:52:24;30.98;;;14.73;;
53843;SDS011;39744;53.314;5.710;2023-03-19T14:55:11;28.02;;;13.63;;
53843;SDS011;39744;53.314;5.710;2023-03-19T14:57:40;30.10;;;15.38;;
53843;SDS011;39744;53.314;5.710;2023-03-19T15:00:06;32.95;;;16.38;;
53843;SDS011;39744;53.314;5.710;2023-03-19T15:02:44;34.03;;;17.67;;
53843;SDS011;39744;53.314;5.710;2023-03-19T15:05:20;42.60;;;18.70;;
53843;SDS011;39744;53.314;5.710;2023-03-19T15:07:52;38.30;;;17.95;;
53843;SDS011;39744;53.314;5.710;2023-03-19T15:10:21;34.35;;;15.93;;
53843;SDS011;39744;53.314;5.710;2023-03-19T15:13:00;35.60;;;16.48;;
53843;SDS011;39744;53.314;5.710;2023-03-19T15:15:48;33.17;;;16.65;;
53843;SDS011;39744;53.314;5.710;2023-03-19T15:18:31;48.25;;;18.58;;
53843;SDS011;39744;53.314;5.710;2023-03-19T15:20:56;53.17;;;16.75;;
53843;SDS011;39744;53.314;5.710;2023-03-19T15:23:26;56.42;;;18.90;;
53843;SDS011;39744;53.314;5.710;2023-03-19T15:25:56;44.05;;;15.10;;
53843;SDS011;39744;53.314;5.710;2023-03-19T15:28:26;60.33;;;18.87;;
53843;SDS011;39744;53.314;5.710;2023-03-19T15:31:00;57.58;;;17.00;;
53843;SDS011;39744;53.314;5.710;2023-03-19T15:33:32;56.95;;;16.15;;
53843;SDS011;39744;53.314;5.710;2023-03-19T15:36:20;56.38;;;14.13;;
53843;SDS011;39744;53.314;5.710;2023-03-19T15:38:56;65.22;;;14.80;;
53843;SDS011;39744;53.314;5.710;2023-03-19T15:41:27;54.47;;;15.45;;
53843;SDS011;39744;53.314;5.710;2023-03-19T15:43:55;47.65;;;13.60;;
53843;SDS011;39744;53.314;5.710;2023-03-19T15:46:28;44.65;;;14.30;;
53843;SDS011;39744;53.314;5.710;2023-03-19T15:51:30;46.80;;;13.00;;
53843;SDS011;39744;53.314;5.710;2023-03-19T15:53:57;54.03;;;14.77;;
53843;SDS011;39744;53.314;5.710;2023-03-19T15:56:24;47.58;;;13.90;;
53843;SDS011;39744;53.314;5.710;2023-03-19T15:58:50;40.80;;;13.73;;
53843;SDS011;39744;53.314;5.710;2023-03-19T16:01:19;49.47;;;13.55;;
53843;SDS011;39744;53.314;5.710;2023-03-19T16:04:02;39.05;;;13.13;;
53843;SDS011;39744;53.314;5.710;2023-03-19T16:06:31;37.05;;;13.02;;
53843;SDS011;39744;53.314;5.710;2023-03-19T16:09:45;41.03;;;10.80;;
53843;SDS011;39744;53.314;5.710;2023-03-19T16:11:55;39.30;;;11.73;;
53843;SDS011;39744;53.314;5.710;2023-03-19T16:19:37;21.27;;;7.18;;